Time;durP1;ratioP1;P1;durP2;ratioP2;P2;SDS_P1;SDS_P2;PMS_P1;PMS_P2;Temp;Humidity;BMP_temperature;BMP_pressure;BME280_temperature;BME280_humidity;BME280_pressure;Samples;Min_cycle;Max_cycle;Signal;HPM_P1;HPM_P2
2021/11/28 00:00:19;;;;;;;10.75;7.72;;;;;;;;;;5056574;28;20210;-59
2021/11/28 00:02:47;;;;;;;12.43;7.40;;;;;;;;;;5056848;28;20221;-59
2021/11/28 00:05:16;;;;;;;10.10;7.20;;;;;;;;;;5057406;28;20339;-60
2021/11/28 00:07:50;;;;;;;11.70;7.97;;;;;;;;;;5056838;28;20259;-59
2021/11/28 00:10:30;;;;;;;10.50;7.47;;;;;;;;;;5055333;28;20209;-60
2021/11/28 00:13:03;;;;;;;9.35;6.25;;;;;;;;;;5054771;28;20275;-59
2021/11/28 00:15:31;;;;;;;14.32;7.18;;;;;;;;;;5054443;28;20649;-59
2021/11/28 00:17:58;;;;;;;9.43;6.43;;;;;;;;;;5055303;28;20233;-59
2021/11/28 00:20:25;;;;;;;12.15;7.43;;;;;;;;;;5054407;28;20229;-60
2021/11/28 00:22:53;;;;;;;10.32;6.70;;;;;;;;;;5053288;28;20732;-59
2021/11/28 00:25:22;;;;;;;9.13;6.65;;;;;;;;;;5056659;28;20205;-60
2021/11/28 00:27:50;;;;;;;8.82;6.50;;;;;;;;;;5057056;28;20292;-59
2021/11/28 00:30:24;;;;;;;12.07;7.40;;;;;;;;;;5057211;28;20228;-59
2021/11/28 00:32:51;;;;;;;11.23;8.15;;;;;;;;;;5057275;28;20257;-59
2021/11/28 00:35:18;;;;;;;10.07;7.55;;;;;;;;;;5057410;28;20748;-60
2021/11/28 00:37:46;;;;;;;10.30;6.95;;;;;;;;;;5056959;28;20232;-59
2021/11/28 00:40:13;;;;;;;9.13;6.70;;;;;;;;;;5056885;28;20201;-60
2021/11/28 00:42:41;;;;;;;12.02;6.80;;;;;;;;;;5060681;28;20656;-59
2021/11/28 00:45:09;;;;;;;13.65;7.43;;;;;;;;;;5057590;28;20229;-59
2021/11/28 00:47:37;;;;;;;8.75;6.95;;;;;;;;;;5057214;28;20326;-60
2021/11/28 00:50:17;;;;;;;9.68;6.95;;;;;;;;;;5057348;28;20293;-58
2021/11/28 00:52:45;;;;;;;13.30;6.68;;;;;;;;;;5057427;28;20261;-60
2021/11/28 00:55:13;;;;;;;10.07;7.00;;;;;;;;;;5057827;28;20253;-59
2021/11/28 00:57:41;;;;;;;8.98;7.47;;;;;;;;;;5057050;28;20673;-59
2021/11/28 01:00:09;;;;;;;10.07;7.63;;;;;;;;;;5057195;28;20292;-59
2021/11/28 01:02:38;;;;;;;10.30;6.55;;;;;;;;;;5056753;28;20308;-60
2021/11/28 01:05:07;;;;;;;10.45;6.60;;;;;;;;;;5056496;28;20296;-59
2021/11/28 01:07:38;;;;;;;8.18;7.28;;;;;;;;;;5067650;28;20240;-59
2021/11/28 01:10:06;;;;;;;11.27;7.30;;;;;;;;;;5057433;28;20260;-59
2021/11/28 01:12:33;;;;;;;12.80;6.60;;;;;;;;;;5061393;28;20221;-59
2021/11/28 01:15:01;;;;;;;13.40;7.40;;;;;;;;;;5060642;28;20325;-58
2021/11/28 01:17:30;;;;;;;11.32;6.80;;;;;;;;;;5056827;28;20241;-59
2021/11/28 01:19:59;;;;;;;11.45;6.60;;;;;;;;;;5064759;28;20218;-60
2021/11/28 01:22:27;;;;;;;9.50;6.80;;;;;;;;;;5070551;28;20241;-59
2021/11/28 01:24:54;;;;;;;12.80;6.43;;;;;;;;;;5070339;28;20234;-60
2021/11/28 01:27:22;;;;;;;10.57;6.30;;;;;;;;;;5070231;28;20241;-60
2021/11/28 01:29:49;;;;;;;9.57;7.03;;;;;;;;;;5070282;28;20204;-59
2021/11/28 01:32:17;;;;;;;8.68;6.63;;;;;;;;;;5060925;28;20249;-59
2021/11/28 01:34:44;;;;;;;8.65;6.28;;;;;;;;;;5055870;28;20416;-59
2021/11/28 01:37:13;;;;;;;9.85;6.10;;;;;;;;;;5055459;28;20202;-59
2021/11/28 01:39:41;;;;;;;10.57;6.05;;;;;;;;;;5058563;28;20202;-60
2021/11/28 01:42:09;;;;;;;7.45;5.82;;;;;;;;;;5062346;28;20256;-60
2021/11/28 01:44:36;;;;;;;10.90;5.97;;;;;;;;;;5060752;28;20688;-60
2021/11/28 01:47:04;;;;;;;7.70;6.30;;;;;;;;;;5058750;28;20229;-60
2021/11/28 01:49:31;;;;;;;8.70;6.10;;;;;;;;;;5057473;28;20272;-60
2021/11/28 01:51:59;;;;;;;9.15;5.43;;;;;;;;;;5057935;28;20217;-60
2021/11/28 01:54:28;;;;;;;8.13;6.32;;;;;;;;;;5056633;28;20408;-60
2021/11/28 01:56:55;;;;;;;7.78;5.20;;;;;;;;;;5055796;28;20292;-60
2021/11/28 01:59:22;;;;;;;7.85;6.20;;;;;;;;;;5055895;28;20210;-60
2021/11/28 02:01:50;;;;;;;12.82;6.35;;;;;;;;;;5055740;28;20765;-59
2021/11/28 02:04:18;;;;;;;9.95;6.43;;;;;;;;;;5055417;28;20225;-60
2021/11/28 02:06:47;;;;;;;9.45;6.00;;;;;;;;;;5056179;28;20367;-59
2021/11/28 02:09:14;;;;;;;9.50;6.82;;;;;;;;;;5055652;28;20288;-59
2021/11/28 02:11:45;;;;;;;11.48;6.75;;;;;;;;;;5054901;28;20312;-58
2021/11/28 02:14:13;;;;;;;7.50;5.93;;;;;;;;;;5055476;28;20738;-59
2021/11/28 02:16:40;;;;;;;8.27;5.20;;;;;;;;;;5055816;28;20300;-59
2021/11/28 02:19:07;;;;;;;8.43;5.60;;;;;;;;;;5055949;28;20292;-60
2021/11/28 02:21:36;;;;;;;9.02;5.63;;;;;;;;;;5055742;28;20265;-59
2021/11/28 02:24:04;;;;;;;8.80;6.18;;;;;;;;;;5055714;28;20222;-60
2021/11/28 02:26:31;;;;;;;6.80;4.75;;;;;;;;;;5055724;28;20229;-59
2021/11/28 02:28:59;;;;;;;8.40;6.65;;;;;;;;;;5056448;28;20279;-59
2021/11/28 02:31:26;;;;;;;12.07;6.28;;;;;;;;;;5055472;28;20426;-59
2021/11/28 02:33:54;;;;;;;11.60;6.90;;;;;;;;;;5055236;28;20744;-59
2021/11/28 02:36:21;;;;;;;12.25;7.10;;;;;;;;;;5055034;28;20292;-58
2021/11/28 02:38:51;;;;;;;10.07;7.03;;;;;;;;;;5055045;28;20293;-60
2021/11/28 02:41:18;;;;;;;12.18;7.65;;;;;;;;;;5054599;28;20221;-59
2021/11/28 02:43:46;;;;;;;11.73;7.55;;;;;;;;;;5055125;28;20636;-60
2021/11/28 02:46:14;;;;;;;9.20;6.63;;;;;;;;;;5055018;28;20234;-59
2021/11/28 02:48:42;;;;;;;9.30;7.30;;;;;;;;;;5054033;28;20680;-59
2021/11/28 02:51:10;;;;;;;12.90;7.38;;;;;;;;;;5054633;28;20236;-58
2021/11/28 02:53:38;;;;;;;10.43;8.75;;;;;;;;;;5054361;28;20245;-59
2021/11/28 02:56:07;;;;;;;10.88;7.90;;;;;;;;;;5054266;28;20689;-59
2021/11/28 02:58:35;;;;;;;7.97;6.88;;;;;;;;;;5054374;28;20229;-60
2021/11/28 03:01:04;;;;;;;13.65;7.43;;;;;;;;;;5054142;28;20296;-59
2021/11/28 03:03:33;;;;;;;10.10;7.72;;;;;;;;;;5054629;28;20281;-59
2021/11/28 03:06:00;;;;;;;12.52;7.50;;;;;;;;;;5054000;28;20231;-58
2021/11/28 03:08:28;;;;;;;7.85;5.97;;;;;;;;;;5054365;28;20627;-59
2021/11/28 03:10:56;;;;;;;11.55;6.45;;;;;;;;;;5053807;28;20237;-58
2021/11/28 03:13:26;;;;;;;6.32;5.50;;;;;;;;;;5057849;28;20236;-59
2021/11/28 03:15:55;;;;;;;6.25;5.57;;;;;;;;;;5056756;28;20313;-59
2021/11/28 03:18:24;;;;;;;7.60;5.30;;;;;;;;;;5053833;28;20292;-60
2021/11/28 03:20:53;;;;;;;11.15;6.38;;;;;;;;;;5054185;28;20280;-59
2021/11/28 03:23:21;;;;;;;9.77;6.97;;;;;;;;;;5053669;28;20296;-60
2021/11/28 03:25:49;;;;;;;12.95;8.68;;;;;;;;;;5053933;28;20259;-60
2021/11/28 03:28:17;;;;;;;8.80;5.65;;;;;;;;;;5054331;28;20293;-59
2021/11/28 03:30:47;;;;;;;9.77;6.90;;;;;;;;;;5058367;28;20241;-59
2021/11/28 03:33:15;;;;;;;6.78;5.20;;;;;;;;;;5058725;28;20247;-58
2021/11/28 03:35:43;;;;;;;10.05;6.75;;;;;;;;;;5055733;28;20756;-59
2021/11/28 03:38:10;;;;;;;8.30;6.00;;;;;;;;;;5053539;28;20236;-60
2021/11/28 03:40:39;;;;;;;8.70;6.05;;;;;;;;;;5053794;28;20292;-59
2021/11/28 03:43:07;;;;;;;8.00;6.50;;;;;;;;;;5053325;28;20412;-59
2021/11/28 03:45:34;;;;;;;20.63;6.43;;;;;;;;;;5053824;28;20621;-59
2021/11/28 03:48:04;;;;;;;7.03;5.30;;;;;;;;;;5053719;28;20287;-59
2021/11/28 03:50:31;;;;;;;9.45;6.43;;;;;;;;;;5053456;28;20285;-59
2021/11/28 03:52:58;;;;;;;7.05;5.43;;;;;;;;;;5053052;28;20252;-59
2021/11/28 03:55:26;;;;;;;9.80;7.68;;;;;;;;;;5053517;28;20253;-59
2021/11/28 03:57:53;;;;;;;7.90;7.10;;;;;;;;;;5053342;28;20225;-59
2021/11/28 04:00:21;;;;;;;8.32;7.10;;;;;;;;;;5052762;28;20240;-58
2021/11/28 04:02:48;;;;;;;12.70;6.80;;;;;;;;;;5053217;28;20265;-59
2021/11/28 04:05:17;;;;;;;6.97;6.25;;;;;;;;;;5056481;28;20225;-58
2021/11/28 04:08:57;;;;;;;8.20;6.93;;;;;;;;;;5106183;27;1475889;-59
2021/11/28 04:11:25;;;;;;;9.57;7.18;;;;;;;;;;5129678;28;20485;-58
2021/11/28 04:13:52;;;;;;;12.27;6.15;;;;;;;;;;5112860;28;20195;-60
2021/11/28 04:16:19;;;;;;;12.02;7.68;;;;;;;;;;5116105;28;20662;-59
2021/11/28 04:18:47;;;;;;;12.63;9.70;;;;;;;;;;5114244;28;20231;-59
2021/11/28 04:21:14;;;;;;;10.35;7.82;;;;;;;;;;5121678;22;20232;-55
2021/11/28 04:23:42;;;;;;;10.82;7.28;;;;;;;;;;5090547;28;20287;-54
2021/11/28 04:26:11;;;;;;;9.40;7.20;;;;;;;;;;5090203;28;20235;-53
2021/11/28 04:28:38;;;;;;;7.38;6.53;;;;;;;;;;5090880;28;20307;-54
2021/11/28 04:31:05;;;;;;;7.80;6.05;;;;;;;;;;5103044;28;20310;-54
2021/11/28 04:33:33;;;;;;;8.90;6.00;;;;;;;;;;5111283;28;20287;-54
2021/11/28 04:36:00;;;;;;;9.68;6.40;;;;;;;;;;5110899;28;20231;-54
2021/11/28 04:38:28;;;;;;;9.52;6.63;;;;;;;;;;5110341;28;20279;-54
2021/11/28 04:40:55;;;;;;;7.10;5.55;;;;;;;;;;5110448;28;20259;-54
2021/11/28 04:43:24;;;;;;;8.43;6.10;;;;;;;;;;5110306;28;20744;-54
2021/11/28 04:45:51;;;;;;;9.98;6.97;;;;;;;;;;5110194;28;20693;-54
2021/11/28 04:48:19;;;;;;;9.40;6.53;;;;;;;;;;5109961;28;20306;-54
2021/11/28 04:50:46;;;;;;;9.18;6.80;;;;;;;;;;5109960;28;20259;-54
2021/11/28 04:53:14;;;;;;;7.75;5.63;;;;;;;;;;5110269;28;20283;-54
2021/11/28 04:55:41;;;;;;;10.38;6.75;;;;;;;;;;5109912;28;20295;-54
2021/11/28 04:58:09;;;;;;;6.57;5.47;;;;;;;;;;5110165;28;20191;-54
2021/11/28 05:00:37;;;;;;;9.38;6.70;;;;;;;;;;5110046;28;20224;-53
2021/11/28 05:03:05;;;;;;;6.85;6.15;;;;;;;;;;5109797;28;20742;-54
2021/11/28 05:05:32;;;;;;;9.63;5.93;;;;;;;;;;5109818;28;20298;-54
2021/11/28 05:08:00;;;;;;;10.07;5.65;;;;;;;;;;5109750;28;20312;-54
2021/11/28 05:10:28;;;;;;;7.70;5.35;;;;;;;;;;5109718;28;20220;-54
2021/11/28 05:12:55;;;;;;;9.52;6.30;;;;;;;;;;5110142;28;20292;-54
2021/11/28 05:15:22;;;;;;;10.40;5.53;;;;;;;;;;5109937;28;20713;-53
2021/11/28 05:17:51;;;;;;;10.82;6.38;;;;;;;;;;5109701;28;20239;-54
2021/11/28 05:20:19;;;;;;;7.70;4.68;;;;;;;;;;5096131;28;20251;-54
2021/11/28 05:22:46;;;;;;;8.02;6.05;;;;;;;;;;5096087;28;20279;-55
2021/11/28 05:25:14;;;;;;;5.68;5.05;;;;;;;;;;5096118;28;20231;-55
2021/11/28 05:27:42;;;;;;;5.05;4.63;;;;;;;;;;5096448;28;20624;-54
2021/11/28 05:30:10;;;;;;;8.43;5.40;;;;;;;;;;5095764;28;20310;-54
2021/11/28 05:32:37;;;;;;;6.03;5.22;;;;;;;;;;5096059;28;20291;-54
2021/11/28 05:35:07;;;;;;;9.82;6.43;;;;;;;;;;5095896;28;20299;-54
2021/11/28 05:37:34;;;;;;;7.43;5.13;;;;;;;;;;5095773;28;20243;-54
2021/11/28 05:40:02;;;;;;;5.78;4.97;;;;;;;;;;5095701;28;20263;-54
2021/11/28 05:42:29;;;;;;;7.45;5.15;;;;;;;;;;5095652;28;20236;-55
2021/11/28 05:44:57;;;;;;;7.82;4.90;;;;;;;;;;5095565;28;20208;-55
2021/11/28 05:47:24;;;;;;;7.00;5.20;;;;;;;;;;5095682;28;20216;-54
2021/11/28 05:49:52;;;;;;;5.80;4.60;;;;;;;;;;5095288;28;20287;-55
2021/11/28 05:52:20;;;;;;;8.95;5.22;;;;;;;;;;5095728;28;20228;-54
2021/11/28 05:54:48;;;;;;;10.38;4.25;;;;;;;;;;5095279;28;20295;-54
2021/11/28 05:57:16;;;;;;;12.85;5.07;;;;;;;;;;5095761;28;20197;-55
2021/11/28 05:59:43;;;;;;;7.95;5.80;;;;;;;;;;5095183;28;20232;-55
2021/11/28 06:02:11;;;;;;;5.03;4.00;;;;;;;;;;5095520;28;20305;-54
2021/11/28 06:04:38;;;;;;;7.25;5.20;;;;;;;;;;5095121;28;20299;-54
2021/11/28 06:07:05;;;;;;;9.77;4.93;;;;;;;;;;5095016;28;20733;-54
2021/11/28 06:09:34;;;;;;;7.30;4.90;;;;;;;;;;5094964;28;20243;-55
2021/11/28 06:12:02;;;;;;;6.32;5.20;;;;;;;;;;5095437;28;20312;-54
2021/11/28 06:14:29;;;;;;;9.90;4.95;;;;;;;;;;5095519;28;20291;-54
2021/11/28 06:16:57;;;;;;;5.97;4.07;;;;;;;;;;5094804;28;20214;-54
2021/11/28 06:19:24;;;;;;;6.97;4.70;;;;;;;;;;5095130;28;20232;-54
2021/11/28 06:21:52;;;;;;;7.28;4.75;;;;;;;;;;5094608;28;20315;-54
2021/11/28 06:24:19;;;;;;;8.48;4.53;;;;;;;;;;5094626;28;20519;-55
2021/11/28 06:26:48;;;;;;;8.85;4.75;;;;;;;;;;5094646;28;20204;-55
2021/11/28 06:29:16;;;;;;;6.30;4.72;;;;;;;;;;5094853;28;20259;-55
2021/11/28 06:31:43;;;;;;;8.20;5.45;;;;;;;;;;5093795;28;20307;-55
2021/11/28 06:34:11;;;;;;;9.27;6.13;;;;;;;;;;5094452;28;20754;-54
2021/11/28 06:36:38;;;;;;;12.85;5.22;;;;;;;;;;5094488;28;20227;-54
2021/11/28 06:39:05;;;;;;;6.75;4.47;;;;;;;;;;5094939;28;20285;-54
2021/11/28 06:41:33;;;;;;;10.18;4.80;;;;;;;;;;5094860;28;20250;-54
2021/11/28 06:44:02;;;;;;;9.40;5.10;;;;;;;;;;5094585;28;20292;-54
2021/11/28 06:46:29;;;;;;;7.15;5.25;;;;;;;;;;5094731;28;20228;-54
2021/11/28 06:48:57;;;;;;;6.90;5.28;;;;;;;;;;5094241;28;20312;-55
2021/11/28 06:51:24;;;;;;;8.77;5.47;;;;;;;;;;5094421;28;20315;-55
2021/11/28 06:53:51;;;;;;;5.78;4.65;;;;;;;;;;5094524;28;20287;-53
2021/11/28 06:56:19;;;;;;;10.05;5.45;;;;;;;;;;5094448;28;20236;-54
2021/11/28 06:58:46;;;;;;;8.60;5.13;;;;;;;;;;5094041;28;20620;-54
2021/11/28 07:01:15;;;;;;;8.85;5.15;;;;;;;;;;5093984;28;20316;-54
2021/11/28 07:03:43;;;;;;;5.88;4.78;;;;;;;;;;5094137;28;20748;-54
2021/11/28 07:06:10;;;;;;;7.55;5.72;;;;;;;;;;5093959;28;20197;-54
2021/11/28 07:08:37;;;;;;;6.88;4.95;;;;;;;;;;5094079;28;20311;-54
2021/11/28 07:11:05;;;;;;;7.20;5.40;;;;;;;;;;5093749;28;20251;-54
2021/11/28 07:13:32;;;;;;;6.18;4.85;;;;;;;;;;5094213;28;20243;-55
2021/11/28 07:16:00;;;;;;;12.45;5.80;;;;;;;;;;5093767;28;20232;-54
2021/11/28 07:18:29;;;;;;;7.30;5.38;;;;;;;;;;5093734;28;20329;-54
2021/11/28 07:20:56;;;;;;;6.78;5.70;;;;;;;;;;5093494;28;20260;-54
2021/11/28 07:23:23;;;;;;;7.53;5.55;;;;;;;;;;5093657;28;20672;-55
2021/11/28 07:25:51;;;;;;;9.77;6.38;;;;;;;;;;5093852;28;20291;-54
2021/11/28 07:28:18;;;;;;;9.18;6.63;;;;;;;;;;5093727;28;20303;-54
2021/11/28 07:30:49;;;;;;;5.97;5.38;;;;;;;;;;5093434;28;20256;-55
2021/11/28 07:33:17;;;;;;;7.53;5.47;;;;;;;;;;5094056;28;20188;-54
2021/11/28 07:35:46;;;;;;;7.45;6.03;;;;;;;;;;5093800;28;20287;-54
2021/11/28 07:38:13;;;;;;;8.20;5.57;;;;;;;;;;5093465;28;20274;-56
2021/11/28 07:40:41;;;;;;;8.98;6.13;;;;;;;;;;5093374;28;20316;-56
2021/11/28 07:43:10;;;;;;;6.38;5.57;;;;;;;;;;5093523;28;20227;-55
2021/11/28 07:45:37;;;;;;;8.52;5.65;;;;;;;;;;5093268;28;20200;-55
2021/11/28 07:48:05;;;;;;;11.52;6.82;;;;;;;;;;5093289;28;20310;-54
2021/11/28 07:50:32;;;;;;;6.97;5.82;;;;;;;;;;5093143;28;20310;-54
2021/11/28 07:53:01;;;;;;;11.93;5.95;;;;;;;;;;5093241;28;20296;-55
2021/11/28 07:55:29;;;;;;;11.00;6.70;;;;;;;;;;5093448;28;20625;-54
2021/11/28 07:57:56;;;;;;;10.27;7.43;;;;;;;;;;5092872;28;20299;-55
2021/11/28 08:00:23;;;;;;;8.85;6.65;;;;;;;;;;5093234;28;20331;-54
2021/11/28 08:02:51;;;;;;;10.43;7.03;;;;;;;;;;5093298;28;20243;-55
2021/11/28 08:05:18;;;;;;;9.60;7.25;;;;;;;;;;5093179;28;20283;-55
2021/11/28 08:07:46;;;;;;;7.43;6.63;;;;;;;;;;5093039;28;20234;-55
2021/11/28 08:10:15;;;;;;;12.10;7.28;;;;;;;;;;5093057;28;20248;-55
2021/11/28 08:12:42;;;;;;;7.00;6.07;;;;;;;;;;5093143;28;20290;-54
2021/11/28 08:15:15;;;;;;;8.02;6.20;;;;;;;;;;5093494;28;20283;-54
2021/11/28 08:17:43;;;;;;;8.45;7.00;;;;;;;;;;5093435;28;20188;-54
2021/11/28 08:20:11;;;;;;;8.38;6.45;;;;;;;;;;5093130;28;20267;-54
2021/11/28 08:22:38;;;;;;;9.60;5.95;;;;;;;;;;5093271;28;20216;-54
2021/11/28 08:25:06;;;;;;;9.88;6.38;;;;;;;;;;5093225;28;20618;-54
2021/11/28 08:27:35;;;;;;;9.02;7.00;;;;;;;;;;5092859;28;20570;-55
2021/11/28 08:30:05;;;;;;;10.43;7.00;;;;;;;;;;5093371;28;20627;-55
2021/11/28 08:32:33;;;;;;;10.52;6.40;;;;;;;;;;5093030;28;20189;-55
2021/11/28 08:35:00;;;;;;;12.77;6.82;;;;;;;;;;5093511;28;20239;-54
2021/11/28 08:37:27;;;;;;;9.43;7.03;;;;;;;;;;5093753;28;20236;-54
2021/11/28 08:39:55;;;;;;;8.07;6.57;;;;;;;;;;5093401;28;20283;-55
2021/11/28 08:42:23;;;;;;;11.07;6.65;;;;;;;;;;5093060;28;20208;-55
2021/11/28 08:44:52;;;;;;;8.80;6.90;;;;;;;;;;5092709;28;20212;-54
2021/11/28 08:47:20;;;;;;;9.18;6.97;;;;;;;;;;5093040;28;20291;-54
2021/11/28 08:49:47;;;;;;;11.07;6.15;;;;;;;;;;5092423;28;20307;-55
2021/11/28 08:52:15;;;;;;;7.78;6.45;;;;;;;;;;5092658;28;20228;-54
2021/11/28 08:54:42;;;;;;;10.98;6.65;;;;;;;;;;5094563;28;20759;-54
2021/11/28 08:57:09;;;;;;;9.77;6.25;;;;;;;;;;5096746;28;20231;-54
2021/11/28 08:59:37;;;;;;;11.30;6.80;;;;;;;;;;5096609;28;20197;-54
2021/11/28 09:02:06;;;;;;;11.07;7.70;;;;;;;;;;5096673;28;20274;-54
2021/11/28 09:04:33;;;;;;;10.65;7.25;;;;;;;;;;5096365;28;20292;-54
2021/11/28 09:07:01;;;;;;;11.88;7.28;;;;;;;;;;5096807;28;20628;-54
2021/11/28 09:09:29;;;;;;;10.63;7.35;;;;;;;;;;5096953;28;20266;-54
2021/11/28 09:11:56;;;;;;;10.27;7.45;;;;;;;;;;5096669;28;20266;-55
2021/11/28 09:14:24;;;;;;;14.20;7.97;;;;;;;;;;5097505;28;20603;-54
2021/11/28 09:16:51;;;;;;;11.75;7.40;;;;;;;;;;5096044;28;20295;-55
2021/11/28 09:19:23;;;;;;;10.90;7.32;;;;;;;;;;5096387;28;20373;-55
2021/11/28 09:21:50;;;;;;;9.40;6.90;;;;;;;;;;5095764;28;20240;-55
2021/11/28 09:24:35;;;;;;;11.43;7.50;;;;;;;;;;5095985;28;20228;-55
2021/11/28 09:27:06;;;;;;;12.23;8.43;;;;;;;;;;5095940;28;20180;-55
2021/11/28 09:29:34;;;;;;;11.70;7.57;;;;;;;;;;5096152;28;20208;-55
2021/11/28 09:32:02;;;;;;;11.57;8.30;;;;;;;;;;5096004;28;20256;-55
2021/11/28 09:34:30;;;;;;;10.38;7.72;;;;;;;;;;5096055;28;20253;-54
2021/11/28 09:36:58;;;;;;;11.70;8.30;;;;;;;;;;5095950;28;20224;-54
2021/11/28 09:39:26;;;;;;;10.30;8.25;;;;;;;;;;5096516;28;20228;-55
2021/11/28 09:41:56;;;;;;;14.68;9.23;;;;;;;;;;5095458;28;20220;-55
2021/11/28 09:44:24;;;;;;;11.48;8.98;;;;;;;;;;5095653;28;20705;-54
2021/11/28 09:46:52;;;;;;;14.23;8.52;;;;;;;;;;5095879;28;20292;-55
2021/11/28 09:49:19;;;;;;;11.60;8.65;;;;;;;;;;5096021;28;20255;-55
2021/11/28 09:51:50;;;;;;;11.45;8.70;;;;;;;;;;5095712;28;20315;-54
2021/11/28 09:54:18;;;;;;;11.35;8.48;;;;;;;;;;5096052;28;20296;-54
2021/11/28 09:56:45;;;;;;;11.13;7.75;;;;;;;;;;5095616;28;20715;-55
2021/11/28 09:59:15;;;;;;;11.25;9.32;;;;;;;;;;5095532;28;20237;-56
2021/11/28 10:01:43;;;;;;;10.73;8.20;;;;;;;;;;5095536;28;20224;-55
2021/11/28 10:04:10;;;;;;;12.65;9.10;;;;;;;;;;5095646;28;20719;-56
2021/11/28 10:06:38;;;;;;;11.10;7.90;;;;;;;;;;5095327;28;20235;-56
2021/11/28 10:09:07;;;;;;;12.82;9.50;;;;;;;;;;5095494;28;20297;-54
2021/11/28 10:12:12;;;;;;;13.52;9.80;;;;;;;;;;5095281;28;20220;-54
2021/11/28 10:14:42;;;;;;;12.75;9.18;;;;;;;;;;5095247;28;20207;-55
2021/11/28 10:17:09;;;;;;;13.55;9.77;;;;;;;;;;5094988;28;20205;-55
2021/11/28 10:19:37;;;;;;;12.18;9.15;;;;;;;;;;5094672;28;20635;-56
2021/11/28 10:22:05;;;;;;;12.90;9.10;;;;;;;;;;5106306;22;20315;-60
2021/11/28 10:24:33;;;;;;;16.17;9.68;;;;;;;;;;5078999;28;20247;-58
2021/11/28 10:27:05;;;;;;;13.80;10.95;;;;;;;;;;5079810;28;20236;-58
2021/11/28 10:29:35;;;;;;;12.07;9.35;;;;;;;;;;5078649;28;20205;-59
2021/11/28 10:32:04;;;;;;;12.70;9.70;;;;;;;;;;5095190;28;20232;-59
2021/11/28 10:34:33;;;;;;;12.77;10.68;;;;;;;;;;5098451;28;20201;-60
2021/11/28 10:37:05;;;;;;;12.40;10.05;;;;;;;;;;5098416;28;20239;-58
2021/11/28 10:39:39;;;;;;;15.77;11.25;;;;;;;;;;5097630;28;20200;-58
2021/11/28 10:42:07;;;;;;;12.52;9.85;;;;;;;;;;5096804;28;20227;-59
2021/11/28 10:44:35;;;;;;;15.57;11.25;;;;;;;;;;5097677;28;20220;-59
2021/11/28 10:47:08;;;;;;;14.65;11.70;;;;;;;;;;5097093;28;20235;-58
2021/11/28 10:49:38;;;;;;;15.18;11.50;;;;;;;;;;5098520;28;20294;-59
2021/11/28 10:52:08;;;;;;;15.15;11.93;;;;;;;;;;5099134;28;20224;-59
2021/11/28 10:54:36;;;;;;;16.20;12.02;;;;;;;;;;5101390;28;20231;-59
2021/11/28 10:57:25;;;;;;;15.20;12.18;;;;;;;;;;5101992;28;20212;-60
2021/11/28 10:59:56;;;;;;;14.77;11.73;;;;;;;;;;5099283;28;20189;-58
2021/11/28 11:02:25;;;;;;;13.50;11.35;;;;;;;;;;5095102;28;20251;-59
2021/11/28 11:04:54;;;;;;;14.05;11.65;;;;;;;;;;5095049;28;20242;-59
2021/11/28 11:07:22;;;;;;;20.67;12.10;;;;;;;;;;5094607;28;20242;-60
2021/11/28 11:09:51;;;;;;;18.65;11.82;;;;;;;;;;5098543;28;20589;-59
2021/11/28 11:12:27;;;;;;;18.17;12.52;;;;;;;;;;5097069;28;20220;-59
2021/11/28 11:14:56;;;;;;;18.50;13.10;;;;;;;;;;5094973;28;20191;-59
2021/11/28 11:17:26;;;;;;;16.80;13.35;;;;;;;;;;5094033;28;20211;-58
2021/11/28 11:19:53;;;;;;;17.40;13.82;;;;;;;;;;5094539;28;20199;-59
2021/11/28 11:22:23;;;;;;;17.85;14.05;;;;;;;;;;5094053;28;20263;-59
2021/11/28 11:24:56;;;;;;;22.27;13.77;;;;;;;;;;5094056;28;20299;-59
2021/11/28 11:27:27;;;;;;;20.73;14.23;;;;;;;;;;5094153;28;20608;-58
2021/11/28 11:29:56;;;;;;;21.13;15.05;;;;;;;;;;5093866;28;20295;-58
2021/11/28 11:32:24;;;;;;;23.42;13.52;;;;;;;;;;5093872;28;20220;-59
2021/11/28 11:34:53;;;;;;;18.92;14.43;;;;;;;;;;5093784;28;20268;-59
2021/11/28 11:37:21;;;;;;;21.35;14.75;;;;;;;;;;5093948;28;20287;-57
2021/11/28 11:39:49;;;;;;;23.00;15.88;;;;;;;;;;5093962;28;20563;-59
2021/11/28 11:42:18;;;;;;;18.15;15.32;;;;;;;;;;5093776;28;20228;-58
2021/11/28 11:44:48;;;;;;;21.27;15.65;;;;;;;;;;5093923;28;20204;-58
2021/11/28 11:47:15;;;;;;;20.88;15.75;;;;;;;;;;5093677;28;20232;-58
2021/11/28 11:49:43;;;;;;;27.10;16.08;;;;;;;;;;5094126;28;20277;-59
2021/11/28 11:52:13;;;;;;;24.60;17.27;;;;;;;;;;5095320;28;20635;-60
2021/11/28 11:54:46;;;;;;;24.83;16.00;;;;;;;;;;5095309;28;20672;-61
2021/11/28 11:57:15;;;;;;;21.33;16.08;;;;;;;;;;5095556;28;20208;-58
2021/11/28 11:59:51;;;;;;;26.80;17.30;;;;;;;;;;5096867;28;20226;-59
2021/11/28 12:02:33;;;;;;;24.30;15.45;;;;;;;;;;5110152;28;20227;-59
2021/11/28 12:05:02;;;;;;;22.63;16.67;;;;;;;;;;5109671;28;20197;-59
2021/11/28 12:07:52;;;;;;;23.73;15.25;;;;;;;;;;5105909;28;20354;-59
2021/11/28 12:10:33;;;;;;;25.08;16.52;;;;;;;;;;5102556;28;20200;-59
2021/11/28 12:13:01;;;;;;;30.65;17.67;;;;;;;;;;5102075;28;20314;-58
2021/11/28 12:15:32;;;;;;;28.92;17.98;;;;;;;;;;5101125;28;20207;-59
2021/11/28 12:18:01;;;;;;;25.98;18.20;;;;;;;;;;5102526;28;20209;-59
2021/11/28 12:20:47;;;;;;;26.02;17.73;;;;;;;;;;5102656;28;20228;-59
2021/11/28 12:23:34;;;;;;;26.38;15.82;;;;;;;;;;5102084;28;20189;-56
2021/11/28 12:26:02;;;;;;;21.95;17.10;;;;;;;;;;5100129;28;20698;-59
2021/11/28 12:28:30;;;;;;;22.95;16.92;;;;;;;;;;5099504;28;20211;-58
2021/11/28 12:30:58;;;;;;;28.35;17.70;;;;;;;;;;5101758;28;20246;-59
2021/11/28 12:33:40;;;;;;;27.70;18.65;;;;;;;;;;5102643;28;20215;-58
2021/11/28 12:36:09;;;;;;;25.02;16.55;;;;;;;;;;5087371;28;20239;-59
2021/11/28 12:38:50;;;;;;;24.75;18.27;;;;;;;;;;5100446;28;20239;-57
2021/11/28 12:41:17;;;;;;;29.30;18.02;;;;;;;;;;5099416;28;20216;-58
2021/11/28 12:44:07;;;;;;;28.33;18.83;;;;;;;;;;5098811;28;20231;-58
2021/11/28 12:46:41;;;;;;;26.63;19.02;;;;;;;;;;5097294;28;20230;-58
2021/11/28 12:49:27;;;;;;;22.42;17.13;;;;;;;;;;5097886;28;20288;-59
2021/11/28 12:51:57;;;;;;;27.05;17.23;;;;;;;;;;5097112;28;20222;-59
2021/11/28 12:54:25;;;;;;;23.55;15.52;;;;;;;;;;5096961;28;20735;-59
2021/11/28 12:57:08;;;;;;;22.08;15.90;;;;;;;;;;5096785;28;20219;-59
2021/11/28 12:59:35;;;;;;;27.83;17.60;;;;;;;;;;5083616;28;20227;-59
2021/11/28 13:02:03;;;;;;;21.77;15.82;;;;;;;;;;5099654;28;20247;-59
2021/11/28 13:04:48;;;;;;;22.95;16.58;;;;;;;;;;5101194;28;20231;-60
2021/11/28 13:07:27;;;;;;;21.30;16.35;;;;;;;;;;5101043;28;20192;-59
2021/11/28 13:09:56;;;;;;;23.23;16.95;;;;;;;;;;5096647;28;20259;-58
2021/11/28 13:12:25;;;;;;;20.17;16.00;;;;;;;;;;5096464;28;20611;-60
2021/11/28 13:14:52;;;;;;;21.48;14.90;;;;;;;;;;5096420;28;20239;-60
2021/11/28 13:17:21;;;;;;;19.77;14.73;;;;;;;;;;5096683;28;20231;-60
2021/11/28 13:19:49;;;;;;;25.70;17.50;;;;;;;;;;5096562;28;20287;-60
2021/11/28 13:22:16;;;;;;;20.88;15.13;;;;;;;;;;5096051;28;20315;-59
2021/11/28 13:24:45;;;;;;;20.55;13.55;;;;;;;;;;5096563;28;20243;-60
2021/11/28 13:27:13;;;;;;;21.65;14.63;;;;;;;;;;5096499;28;20232;-59
2021/11/28 13:29:52;;;;;;;19.42;15.63;;;;;;;;;;5096547;28;20236;-59
2021/11/28 13:32:20;;;;;;;21.48;14.80;;;;;;;;;;5096385;28;20220;-59
2021/11/28 13:34:47;;;;;;;24.23;15.70;;;;;;;;;;5096118;28;20204;-58
2021/11/28 13:37:19;;;;;;;23.75;16.67;;;;;;;;;;5096247;28;20200;-60
2021/11/28 13:39:48;;;;;;;24.55;16.27;;;;;;;;;;5096054;28;20181;-58
2021/11/28 13:42:15;;;;;;;24.08;15.30;;;;;;;;;;5096022;28;20256;-59
2021/11/28 13:44:44;;;;;;;24.13;16.23;;;;;;;;;;5096086;28;20608;-59
2021/11/28 13:47:12;;;;;;;20.13;14.85;;;;;;;;;;5095967;28;20227;-59
2021/11/28 13:49:46;;;;;;;20.02;15.30;;;;;;;;;;5095673;28;20234;-59
2021/11/28 13:52:14;;;;;;;22.90;15.32;;;;;;;;;;5102922;28;20228;-60
2021/11/28 13:54:42;;;;;;;23.65;16.60;;;;;;;;;;5096417;28;20232;-60
2021/11/28 13:57:13;;;;;;;23.38;15.60;;;;;;;;;;5095817;28;20232;-59
2021/11/28 13:59:42;;;;;;;20.42;16.90;;;;;;;;;;5095825;28;20184;-60
2021/11/28 14:02:17;;;;;;;25.95;16.05;;;;;;;;;;5095341;28;20722;-59
2021/11/28 14:04:45;;;;;;;25.63;17.88;;;;;;;;;;5095492;28;20720;-60
2021/11/28 14:07:14;;;;;;;22.77;16.25;;;;;;;;;;5095277;28;20742;-60
2021/11/28 14:09:42;;;;;;;22.90;16.05;;;;;;;;;;5095704;28;20232;-59
2021/11/28 14:12:16;;;;;;;25.48;17.17;;;;;;;;;;5096006;28;20316;-59
2021/11/28 14:14:52;;;;;;;23.80;16.25;;;;;;;;;;5096852;28;20184;-59
2021/11/28 14:17:19;;;;;;;23.13;17.60;;;;;;;;;;5097700;28;20720;-59
2021/11/28 14:19:47;;;;;;;24.77;15.68;;;;;;;;;;5095218;28;20291;-59
2021/11/28 14:22:35;;;;;;;22.08;15.77;;;;;;;;;;5094781;28;20664;-59
2021/11/28 14:25:19;;;;;;;26.48;17.33;;;;;;;;;;5095417;28;20272;-60
2021/11/28 14:28:01;;;;;;;19.33;15.07;;;;;;;;;;5095186;28;20193;-59
2021/11/28 14:30:30;;;;;;;24.35;18.40;;;;;;;;;;5094547;28;20314;-60
2021/11/28 14:33:00;;;;;;;20.90;15.60;;;;;;;;;;5094944;28;20232;-58
2021/11/28 14:35:27;;;;;;;18.08;15.02;;;;;;;;;;5094925;28;20296;-59
2021/11/28 14:38:14;;;;;;;20.25;15.57;;;;;;;;;;5094630;28;20651;-58
2021/11/28 14:40:42;;;;;;;22.02;15.70;;;;;;;;;;5094433;28;20310;-58
2021/11/28 14:43:10;;;;;;;20.70;15.30;;;;;;;;;;5094834;28;20228;-59